Time,TemperatureF,DewpointF,PressureIn,WindDirection,WindDirectionDegrees,WindSpeedMPH,WindSpeedGustMPH,Humidity,HourlyPrecipIn,Conditions,Clouds,dailyrainin,SoftwareType,DateUTC
2013-02-12 00:01:00,27.8,27.8,28.94,SSE,158,0.0,0.0,100,-99.99,,,-99.99,WSDL version 423,2013-02-12 05:01:00,
2013-02-12 00:11:00,28.2,28.2,28.94,SSE,158,0.0,0.0,100,-99.99,,,-99.99,WSDL version 423,2013-02-12 05:11:00,
2013-02-12 00:16:00,28.4,28.4,28.94,SSE,158,0.0,0.0,100,-99.99,,,-99.99,WSDL version 423,2013-02-12 05:16:00,
2013-02-12 00:21:00,28.6,28.6,28.94,SSE,158,0.0,0.0,100,-99.99,,,-99.99,WSDL version 423,2013-02-12 05:21:00,
2013-02-12 00:26:00,28.6,28.6,28.94,SSE,158,0.0,0.0,100,-99.99,,,-99.99,WSDL version 423,2013-02-12 05:26:00,
2013-02-12 00:31:00,28.7,28.7,28.94,SSE,158,0.0,0.0,100,-99.99,,,-99.99,WSDL version 423,2013-02-12 05:31:00,
2013-02-12 00:36:00,28.9,28.9,28.94,SSE,158,0.0,0.0,100,-99.99,,,-99.99,WSDL version 423,2013-02-12 05:36:00,
2013-02-12 00:41:00,29.4,29.4,28.94,ESE,121,0.0,0.0,100,-99.99,,,-99.99,WSDL version 423,2013-02-12 05:41:00,
2013-02-12 00:46:00,29.5,29.5,28.94,South,185,0.0,0.0,100,-99.99,,,-99.99,WSDL version 423,2013-02-12 05:46:00,
2013-02-12 00:51:00,29.7,29.7,28.94,SSE,168,0.0,1.6,100,-99.99,,,-99.99,WSDL version 423,2013-02-12 05:51:00,
2013-02-12 00:56:00,29.8,29.8,28.94,SSW,197,0.0,1.6,100,-99.99,,,-99.99,WSDL version 423,2013-02-12 05:56:00,
2013-02-12 01:01:00,30.0,30.0,28.94,SSE,168,0.0,0.0,100,-99.99,,,-99.99,WSDL version 423,2013-02-12 06:01:00,
2013-02-12 01:06:00,30.1,30.1,28.94,SE,146,0.0,0.0,100,-99.99,,,-99.99,WSDL version 423,2013-02-12 06:06:00,
2013-02-12 01:11:00,30.2,30.2,28.94,South,170,0.0,1.3,100,-99.99,,,-99.99,WSDL version 423,2013-02-12 06:11:00,
2013-02-12 01:16:00,30.3,30.3,28.94,South,177,0.0,2.0,100,-99.99,,,-99.99,WSDL version 423,2013-02-12 06:16:00,
2013-02-12 01:21:00,30.4,30.4,28.94,SE,138,0.0,2.0,100,-99.99,,,-99.99,WSDL version 423,2013-02-12 06:21:00,
2013-02-12 01:26:00,30.4,30.4,28.94,South,175,0.0,0.0,100,-99.99,,,-99.99,WSDL version 423,2013-02-12 06:26:00,
2013-02-12 01:31:00,30.4,30.4,28.94,South,174,0.0,0.0,100,-99.99,,,-99.99,WSDL version 423,2013-02-12 06:31:00,
2013-02-12 01:36:00,30.5,30.5,28.91,SSW,200,0.0,0.0,100,-99.99,,,-99.99,WSDL version 423,2013-02-12 06:36:00,
2013-02-12 01:41:00,30.6,30.6,28.91,SSE,161,0.0,0.0,100,-99.99,,,-99.99,WSDL version 423,2013-02-12 06:41:00,
2013-02-12 01:46:00,30.6,30.6,28.91,South,170,0.0,1.6,100,-99.99,,,-99.99,WSDL version 423,2013-02-12 06:46:00,
2013-02-12 01:51:00,30.6,30.6,28.94,SSE,155,0.0,1.6,100,-99.99,,,-99.99,WSDL version 423,2013-02-12 06:51:00,
2013-02-12 01:56:00,30.7,30.7,28.94,South,170,0.0,1.6,100,-99.99,,,-99.99,WSDL version 423,2013-02-12 06:56:00,
2013-02-12 02:01:00,30.7,30.7,28.94,South,178,0.0,1.3,100,-99.99,,,-99.99,WSDL version 423,2013-02-12 07:01:00,
2013-02-12 02:06:00,30.7,30.7,28.94,SSW,205,0.0,1.3,100,-99.99,,,-99.99,WSDL version 423,2013-02-12 07:06:00,
2013-02-12 02:11:00,-999.0,-99.9,28.94,SSE,165,0.0,3.1,-999,-99.99,,,-99.99,WSDL version 423,2013-02-12 07:11:00,
2013-02-12 02:16:00,-999.0,-99.9,28.94,SSW,203,0.0,3.1,-999,-99.99,,,-99.99,WSDL version 423,2013-02-12 07:16:00,
2013-02-12 02:21:00,30.9,30.9,28.94,SSE,168,0.4,1.3,100,-99.99,,,-99.99,WSDL version 423,2013-02-12 07:21:00,
2013-02-12 02:26:00,-999.0,-99.9,28.94,SSE,166,0.0,1.3,-999,-99.99,,,-99.99,WSDL version 423,2013-02-12 07:26:00,
2013-02-12 02:31:00,30.9,30.9,28.94,SSW,203,0.0,0.0,100,-99.99,,,-99.99,WSDL version 423,2013-02-12 07:31:00,
2013-02-12 02:36:00,-999.0,-99.9,28.91,SSE,160,0.0,2.0,-999,-99.99,,,-99.99,WSDL version 423,2013-02-12 07:36:00,
2013-02-12 02:41:00,-999.0,-99.9,28.91,South,174,0.0,2.0,-999,-99.99,,,-99.99,WSDL version 423,2013-02-12 07:41:00,
2013-02-12 02:46:00,-999.0,-99.9,28.91,SSE,168,0.0,1.1,-999,-99.99,,,-99.99,WSDL version 423,2013-02-12 07:46:00,
2013-02-12 02:51:00,31.1,31.1,28.91,SSE,149,0.0,1.1,100,-99.99,,,-99.99,WSDL version 423,2013-02-12 07:51:00,
2013-02-12 02:56:00,31.2,31.2,28.91,SSE,153,0.0,1.1,100,-99.99,,,-99.99,WSDL version 423,2013-02-12 07:56:00,
2013-02-12 03:01:00,-999.0,-99.9,28.91,SSE,155,0.0,0.0,-999,-99.99,,,-99.99,WSDL version 423,2013-02-12 08:01:00,
2013-02-12 03:06:00,31.1,31.1,28.94,South,190,0.0,0.9,100,-99.99,,,-99.99,WSDL version 423,2013-02-12 08:06:00,
2013-02-12 03:11:00,-999.0,-99.9,28.94,South,188,0.0,1.3,-999,-99.99,,,-99.99,WSDL version 423,2013-02-12 08:11:00,
2013-02-12 03:16:00,31.1,31.1,28.94,WSW,250,0.0,1.3,100,-99.99,,,-99.99,WSDL version 423,2013-02-12 08:16:00,
2013-02-12 03:21:00,31.1,31.1,28.91,WSW,240,0.0,0.0,100,-99.99,,,-99.99,WSDL version 423,2013-02-12 08:21:00,
2013-02-12 03:26:00,31.1,31.1,28.91,SSE,166,0.0,0.0,100,-99.99,,,-99.99,WSDL version 423,2013-02-12 08:26:00,
2013-02-12 03:31:00,31.1,31.1,28.91,SSE,158,0.0,0.0,100,-99.99,,,-99.99,WSDL version 423,2013-02-12 08:31:00,
2013-02-12 03:36:00,31.1,31.1,28.91,SSW,193,0.0,0.0,100,-99.99,,,-99.99,WSDL version 423,2013-02-12 08:36:00,
2013-02-12 03:41:00,31.1,31.1,28.91,SSW,200,0.9,1.6,100,-99.99,,,-99.99,WSDL version 423,2013-02-12 08:41:00,
2013-02-12 03:46:00,31.2,31.2,28.91,SSW,210,0.0,1.6,100,-99.99,,,-99.99,WSDL version 423,2013-02-12 08:46:00,
2013-02-12 03:51:00,31.1,31.1,28.91,South,183,0.0,0.0,100,-99.99,,,-99.99,WSDL version 423,2013-02-12 08:51:00,
2013-02-12 03:56:00,-999.0,-99.9,28.91,South,170,0.0,1.3,-999,-99.99,,,-99.99,WSDL version 423,2013-02-12 08:56:00,
2013-02-12 04:01:00,31.3,31.3,28.91,SSW,200,0.0,1.3,100,-99.99,,,-99.99,WSDL version 423,2013-02-12 09:01:00,
2013-02-12 04:06:00,31.2,31.2,28.91,South,169,0.8,5.4,100,-99.99,,,-99.99,WSDL version 423,2013-02-12 09:06:00,
2013-02-12 04:11:00,-999.0,-99.9,28.91,SW,228,0.0,5.4,-999,-99.99,,,-99.99,WSDL version 423,2013-02-12 09:11:00,
2013-02-12 04:16:00,31.1,31.1,28.91,SSW,200,0.0,0.0,100,-99.99,,,-99.99,WSDL version 423,2013-02-12 09:16:00,
2013-02-12 04:21:00,-999.0,-99.9,28.91,South,180,0.0,0.0,-999,-99.99,,,-99.99,WSDL version 423,2013-02-12 09:21:00,
2013-02-12 04:26:00,31.1,31.1,28.91,SSW,196,0.0,1.3,100,-99.99,,,-99.99,WSDL version 423,2013-02-12 09:26:00,
2013-02-12 04:31:00,-999.0,-99.9,28.91,SSE,165,0.0,1.3,-999,-99.99,,,-99.99,WSDL version 423,2013-02-12 09:31:00,
2013-02-12 04:36:00,31.1,31.1,28.91,SSW,200,0.0,2.9,100,-99.99,,,-99.99,WSDL version 423,2013-02-12 09:36:00,
2013-02-12 04:41:00,-999.0,-99.9,28.91,SSE,152,0.0,2.9,-999,-99.99,,,-99.99,WSDL version 423,2013-02-12 09:41:00,
2013-02-12 04:46:00,31.1,31.1,28.91,SSW,193,0.0,1.6,100,-99.99,,,-99.99,WSDL version 423,2013-02-12 09:46:00,
2013-02-12 04:51:00,31.1,31.1,28.91,SSE,165,0.0,1.6,100,-99.99,,,-99.99,WSDL version 423,2013-02-12 09:51:00,
2013-02-12 04:56:00,31.1,31.1,28.91,SSE,158,0.0,2.0,100,-99.99,,,-99.99,WSDL version 423,2013-02-12 09:56:00,
2013-02-12 05:01:00,-999.0,-99.9,28.91,SSW,203,0.0,2.0,-999,-99.99,,,-99.99,WSDL version 423,2013-02-12 10:01:00,
2013-02-12 05:06:00,30.9,30.9,28.91,SSW,208,0.0,0.0,100,-99.99,,,-99.99,WSDL version 423,2013-02-12 10:06:00,
2013-02-12 05:11:00,30.9,30.9,28.91,SSW,203,0.0,0.0,100,-99.99,,,-99.99,WSDL version 423,2013-02-12 10:11:00,
2013-02-12 05:16:00,-999.0,-99.9,28.91,SSW,203,0.0,0.0,-999,-99.99,,,-99.99,WSDL version 423,2013-02-12 10:16:00,
2013-02-12 05:21:00,30.9,30.9,28.91,SSW,203,0.0,0.0,100,-99.99,,,-99.99,WSDL version 423,2013-02-12 10:21:00,
2013-02-12 05:26:00,30.8,30.8,28.91,SSW,203,0.0,0.0,100,-99.99,,,-99.99,WSDL version 423,2013-02-12 10:26:00,
2013-02-12 05:31:00,30.7,30.7,28.91,SSW,203,0.0,2.5,100,-99.99,,,-99.99,WSDL version 423,2013-02-12 10:31:00,
2013-02-12 05:36:00,30.7,30.7,28.94,SSW,203,0.0,2.5,100,-99.99,,,-99.99,WSDL version 423,2013-02-12 10:36:00,
2013-02-12 05:41:00,30.8,30.8,28.94,SSW,203,0.0,0.0,100,-99.99,,,-99.99,WSDL version 423,2013-02-12 10:41:00,
2013-02-12 05:46:00,30.9,30.9,28.94,SSW,203,0.0,0.0,100,-99.99,,,-99.99,WSDL version 423,2013-02-12 10:46:00,
2013-02-12 05:51:00,30.9,30.9,28.91,SSW,203,0.0,0.0,100,-99.99,,,-99.99,WSDL version 423,2013-02-12 10:51:00,
2013-02-12 05:56:00,30.7,30.7,28.91,SSW,203,0.0,0.0,100,-99.99,,,-99.99,WSDL version 423,2013-02-12 10:56:00,
2013-02-12 06:01:00,30.9,30.9,28.91,SSW,203,0.0,0.0,100,-99.99,,,-99.99,WSDL version 423,2013-02-12 11:01:00,
2013-02-12 06:06:00,30.9,30.9,28.91,SSW,203,0.0,0.0,100,-99.99,,,-99.99,WSDL version 423,2013-02-12 11:06:00,
2013-02-12 06:11:00,30.9,30.9,28.91,SSW,203,0.0,0.0,100,-99.99,,,-99.99,WSDL version 423,2013-02-12 11:11:00,
2013-02-12 06:16:00,30.9,30.9,28.91,SSW,203,0.0,0.0,100,-99.99,,,-99.99,WSDL version 423,2013-02-12 11:16:00,
2013-02-12 06:21:00,30.9,30.9,28.91,SSW,203,0.0,0.0,100,-99.99,,,-99.99,WSDL version 423,2013-02-12 11:21:00,
2013-02-12 06:26:00,31.0,31.0,28.91,SSW,203,0.0,0.0,100,-99.99,,,-99.99,WSDL version 423,2013-02-12 11:26:00,
2013-02-12 06:31:00,31.1,31.1,28.91,SSW,203,0.0,0.0,100,-99.99,,,-99.99,WSDL version 423,2013-02-12 11:31:00,
2013-02-12 06:36:00,31.0,31.0,28.94,SSW,203,0.0,0.0,100,-99.99,,,-99.99,WSDL version 423,2013-02-12 11:36:00,
2013-02-12 06:41:00,31.1,31.1,28.94,WNW,290,0.0,0.0,100,-99.99,,,-99.99,WSDL version 423,2013-02-12 11:41:00,
2013-02-12 06:46:00,31.1,31.1,28.94,SSW,200,0.0,0.0,100,-99.99,,,-99.99,WSDL version 423,2013-02-12 11:46:00,
2013-02-12 06:51:00,31.2,31.2,28.94,SSW,203,0.0,0.0,100,-99.99,,,-99.99,WSDL version 423,2013-02-12 11:51:00,
2013-02-12 06:56:00,31.3,31.3,28.94,South,177,0.0,0.0,100,-99.99,,,-99.99,WSDL version 423,2013-02-12 11:56:00,
2013-02-12 07:01:00,31.4,31.4,28.94,SSE,158,0.0,0.0,100,-99.99,,,-99.99,WSDL version 423,2013-02-12 12:01:00,
2013-02-12 07:06:00,31.5,31.5,28.94,SSE,158,0.0,0.0,100,-99.99,,,-99.99,WSDL version 423,2013-02-12 12:06:00,
2013-02-12 07:11:00,31.6,31.6,28.94,SSE,152,0.0,2.5,100,-99.99,,,-99.99,WSDL version 423,2013-02-12 12:11:00,
2013-02-12 07:16:00,-999.0,-99.9,28.94,SSW,203,0.0,2.5,-999,-99.99,,,-99.99,WSDL version 423,2013-02-12 12:16:00,
2013-02-12 07:21:00,31.6,31.6,28.94,SSW,205,0.0,0.0,100,-99.99,,,-99.99,WSDL version 423,2013-02-12 12:21:00,
2013-02-12 07:26:00,31.8,31.8,28.94,SSW,203,0.0,0.0,100,-99.99,,,-99.99,WSDL version 423,2013-02-12 12:26:00,
2013-02-12 07:31:00,31.8,31.8,28.94,SSW,203,0.0,0.0,100,-99.99,,,-99.99,WSDL version 423,2013-02-12 12:31:00,
2013-02-12 07:36:00,32.0,32.0,28.97,SSW,203,0.0,0.0,100,-99.99,,,-99.99,WSDL version 423,2013-02-12 12:36:00,
2013-02-12 07:41:00,32.0,32.0,28.97,SSW,203,0.0,0.0,100,-99.99,,,-99.99,WSDL version 423,2013-02-12 12:41:00,
2013-02-12 07:46:00,32.2,32.2,28.97,SSW,208,0.0,0.0,100,-99.99,,,-99.99,WSDL version 423,2013-02-12 12:46:00,
2013-02-12 07:51:00,32.4,32.4,28.97,SW,225,0.0,0.0,100,-99.99,,,-99.99,WSDL version 423,2013-02-12 12:51:00,
2013-02-12 07:56:00,32.6,32.6,28.97,SSW,203,0.0,0.9,100,-99.99,,,-99.99,WSDL version 423,2013-02-12 12:56:00,
2013-02-12 08:01:00,33.1,33.1,28.97,SSW,203,0.0,0.9,100,-99.99,,,-99.99,WSDL version 423,2013-02-12 13:01:00,
2013-02-12 08:06:00,33.7,33.7,28.97,SSW,203,0.0,0.0,100,-99.99,,,-99.99,WSDL version 423,2013-02-12 13:06:00,
2013-02-12 08:11:00,34.0,34.0,28.97,SSW,203,0.0,0.0,100,-99.99,,,-99.99,WSDL version 423,2013-02-12 13:11:00,
2013-02-12 08:16:00,34.3,34.3,28.97,SSW,203,0.0,0.0,100,-99.99,,,-99.99,WSDL version 423,2013-02-12 13:16:00,
2013-02-12 08:21:00,34.5,34.5,28.97,SSW,203,0.0,0.0,100,-99.99,,,-99.99,WSDL version 423,2013-02-12 13:21:00,
2013-02-12 08:26:00,34.5,34.5,28.97,SSW,203,0.0,0.0,100,-99.99,,,-99.99,WSDL version 423,2013-02-12 13:26:00,
2013-02-12 08:31:00,34.6,34.6,28.97,SSW,203,0.0,0.0,100,-99.99,,,-99.99,WSDL version 423,2013-02-12 13:31:00,
2013-02-12 08:36:00,35.0,35.0,28.97,SSW,203,0.0,0.0,100,-99.99,,,-99.99,WSDL version 423,2013-02-12 13:36:00,
2013-02-12 08:41:00,35.4,35.4,28.97,WSW,241,0.0,0.0,100,-99.99,,,-99.99,WSDL version 423,2013-02-12 13:41:00,
2013-02-12 08:46:00,35.6,35.6,28.97,SW,233,0.0,0.9,100,-99.99,,,-99.99,WSDL version 423,2013-02-12 13:46:00,
2013-02-12 08:51:00,35.6,35.6,29.00,SW,225,0.0,0.9,100,-99.99,,,-99.99,WSDL version 423,2013-02-12 13:51:00,
2013-02-12 08:56:00,35.7,35.7,29.00,SW,225,0.0,0.0,100,-99.99,,,-99.99,WSDL version 423,2013-02-12 13:56:00,
2013-02-12 09:01:00,35.8,35.8,29.00,SSW,203,0.0,0.0,100,-99.99,,,-99.99,WSDL version 423,2013-02-12 14:01:00,
2013-02-12 09:06:00,35.8,35.8,29.00,SSW,203,0.0,0.0,100,-99.99,,,-99.99,WSDL version 423,2013-02-12 14:06:00,
2013-02-12 09:11:00,35.7,35.7,29.00,South,185,0.0,0.0,100,-99.99,,,-99.99,WSDL version 423,2013-02-12 14:11:00,
2013-02-12 09:21:00,35.8,35.8,29.03,South,173,0.0,1.1,100,-99.99,,,-99.99,WSDL version 423,2013-02-12 14:21:00,
2013-02-12 09:26:00,36.2,36.2,29.03,SW,225,0.0,0.0,100,-99.99,,,-99.99,WSDL version 423,2013-02-12 14:26:00,
2013-02-12 09:31:00,36.7,36.7,29.03,SSW,212,0.0,1.3,100,-99.99,,,-99.99,WSDL version 423,2013-02-12 14:31:00,
2013-02-12 09:36:00,36.9,36.9,29.00,SW,225,0.0,1.3,100,-99.99,,,-99.99,WSDL version 423,2013-02-12 14:36:00,
2013-02-12 09:41:00,37.2,36.9,29.00,SSW,205,0.4,2.0,98,-99.99,,,-99.99,WSDL version 423,2013-02-12 14:41:00,
2013-02-12 09:46:00,37.6,37.1,29.00,SSW,193,0.0,2.0,98,-99.99,,,-99.99,WSDL version 423,2013-02-12 14:46:00,
2013-02-12 09:51:00,38.1,37.4,29.03,SSW,205,0.0,0.9,97,-99.99,,,-99.99,WSDL version 423,2013-02-12 14:51:00,
2013-02-12 09:56:00,37.7,36.2,29.03,South,183,0.0,1.6,92,-99.99,,,-99.99,WSDL version 423,2013-02-12 14:56:00,
2013-02-12 10:01:00,37.5,35.2,29.03,West,273,0.4,2.2,91,-99.99,,,-99.99,WSDL version 423,2013-02-12 15:01:00,
2013-02-12 10:06:00,37.2,34.8,29.03,SSE,155,0.0,2.2,91,-99.99,,,-99.99,WSDL version 423,2013-02-12 15:06:00,
2013-02-12 10:11:00,37.3,34.7,29.03,SSW,195,0.6,4.0,90,-99.99,,,-99.99,WSDL version 423,2013-02-12 15:11:00,
2013-02-12 10:16:00,38.2,35.6,29.03,South,191,0.4,4.0,90,-99.99,,,-99.99,WSDL version 423,2013-02-12 15:16:00,
2013-02-12 10:21:00,38.7,36.0,29.03,South,186,0.6,2.5,90,-99.99,,,-99.99,WSDL version 423,2013-02-12 15:21:00,
2013-02-12 10:31:00,39.7,36.4,29.03,SSW,210,0.0,1.3,88,-99.99,,,-99.99,WSDL version 423,2013-02-12 15:31:00,
2013-02-12 10:36:00,39.7,35.9,29.03,South,170,0.0,1.3,86,-99.99,,,-99.99,WSDL version 423,2013-02-12 15:36:00,
2013-02-12 10:41:00,39.7,35.3,29.03,South,183,0.4,2.2,83,-99.99,,,-99.99,WSDL version 423,2013-02-12 15:41:00,
2013-02-12 10:46:00,39.4,34.6,29.03,South,174,0.0,2.2,83,-99.99,,,-99.99,WSDL version 423,2013-02-12 15:46:00,
2013-02-12 10:51:00,39.6,34.8,29.06,South,186,0.0,1.6,82,-99.99,,,-99.99,WSDL version 423,2013-02-12 15:51:00,
2013-02-12 10:56:00,39.6,34.5,29.06,SSE,158,0.0,2.2,82,-99.99,,,-99.99,WSDL version 423,2013-02-12 15:56:00,
2013-02-12 11:01:00,39.7,34.6,29.06,SSE,165,1.3,2.7,80,-99.99,,,-99.99,WSDL version 423,2013-02-12 16:01:00,
2013-02-12 11:06:00,39.2,33.1,29.06,SSW,198,1.1,3.8,79,-99.99,,,-99.99,WSDL version 423,2013-02-12 16:06:00,
2013-02-12 11:11:00,39.3,33.1,29.06,South,177,1.2,4.3,78,-99.99,,,-99.99,WSDL version 423,2013-02-12 16:11:00,
2013-02-12 11:16:00,39.2,33.3,29.06,SE,146,0.0,4.3,79,-99.99,,,-99.99,WSDL version 423,2013-02-12 16:16:00,
2013-02-12 11:21:00,39.3,33.1,29.06,WSW,248,0.0,5.4,79,-99.99,,,-99.99,WSDL version 423,2013-02-12 16:21:00,
2013-02-12 11:26:00,40.2,34.2,29.06,South,183,1.1,5.4,78,-99.99,,,-99.99,WSDL version 423,2013-02-12 16:26:00,
2013-02-12 11:31:00,40.4,33.7,29.06,SE,143,0.6,3.6,76,-99.99,,,-99.99,WSDL version 423,2013-02-12 16:31:00,
2013-02-12 11:36:00,39.9,32.6,29.06,NNE,26,2.1,2.7,74,-99.99,,,-99.99,WSDL version 423,2013-02-12 16:36:00,
2013-02-12 11:41:00,39.1,31.6,29.06,SSW,195,2.1,4.3,74,-99.99,,,-99.99,WSDL version 423,2013-02-12 16:41:00,
2013-02-12 11:46:00,38.5,30.7,29.06,South,172,1.4,4.3,73,-99.99,,,-99.99,WSDL version 423,2013-02-12 16:46:00,
2013-02-12 11:51:00,37.9,30.3,29.09,SSW,203,2.1,8.5,74,-99.99,,,-99.99,WSDL version 423,2013-02-12 16:51:00,
2013-02-12 11:56:00,37.3,29.8,29.09,SW,228,0.9,8.5,75,-99.99,,,-99.99,WSDL version 423,2013-02-12 16:56:00,
2013-02-12 12:01:00,37.2,30.0,29.09,SW,225,3.2,5.6,75,-99.99,,,-99.99,WSDL version 423,2013-02-12 17:01:00,
2013-02-12 12:06:00,37.2,29.6,29.09,South,170,2.3,6.5,74,-99.99,,,-99.99,WSDL version 423,2013-02-12 17:06:00,
2013-02-12 12:11:00,-999.0,-99.9,29.09,SSW,205,1.8,8.1,-999,-99.99,,,-99.99,WSDL version 423,2013-02-12 17:11:00,
2013-02-12 12:16:00,-999.0,-99.9,29.09,SE,140,1.5,8.1,-999,-99.99,,,-99.99,WSDL version 423,2013-02-12 17:16:00,
2013-02-12 12:21:00,-999.0,-99.9,29.09,South,175,1.0,4.7,-999,-99.99,,,-99.99,WSDL version 423,2013-02-12 17:21:00,
2013-02-12 12:26:00,-999.0,-99.9,29.09,NNE,31,1.1,3.6,-999,-99.99,,,-99.99,WSDL version 423,2013-02-12 17:26:00,
2013-02-12 12:31:00,-999.0,-99.9,29.09,SSW,210,3.4,8.1,-999,-99.99,,,-99.99,WSDL version 423,2013-02-12 17:31:00,
2013-02-12 12:36:00,-999.0,-99.9,29.09,SSE,152,2.1,8.1,-999,-99.99,,,-99.99,WSDL version 423,2013-02-12 17:36:00,
2013-02-12 12:41:00,-999.0,-99.9,29.09,East,90,2.5,11.9,-999,-99.99,,,-99.99,WSDL version 423,2013-02-12 17:41:00,
2013-02-12 12:46:00,-999.0,-99.9,29.09,SW,222,3.2,11.9,-999,-99.99,,,-99.99,WSDL version 423,2013-02-12 17:46:00,
2013-02-12 12:51:00,39.9,28.0,29.12,South,177,2.1,6.0,62,-99.99,,,-99.99,WSDL version 423,2013-02-12 17:51:00,
2013-02-12 12:56:00,40.2,28.0,29.12,SW,219,2.3,4.0,61,-99.99,,,-99.99,WSDL version 423,2013-02-12 17:56:00,
2013-02-12 13:01:00,39.6,26.6,29.12,South,183,1.3,7.2,60,-99.99,,,-99.99,WSDL version 423,2013-02-12 18:01:00,
2013-02-12 13:06:00,39.2,26.5,29.12,SW,217,1.5,7.2,60,-99.99,,,-99.99,WSDL version 423,2013-02-12 18:06:00,
2013-02-12 13:11:00,38.9,26.6,29.12,SW,222,2.2,4.0,61,-99.99,,,-99.99,WSDL version 423,2013-02-12 18:11:00,
2013-02-12 13:16:00,39.5,27.5,29.12,SW,228,1.3,4.0,62,-99.99,,,-99.99,WSDL version 423,2013-02-12 18:16:00,
2013-02-12 13:21:00,40.2,28.3,29.12,South,191,1.0,3.1,61,-99.99,,,-99.99,WSDL version 423,2013-02-12 18:21:00,
2013-02-12 13:26:00,39.0,26.3,29.12,SSW,200,2.5,4.9,60,-99.99,,,-99.99,WSDL version 423,2013-02-12 18:26:00,
2013-02-12 13:36:00,37.0,25.5,29.12,South,180,1.2,5.4,64,-99.99,,,-99.99,WSDL version 423,2013-02-12 18:36:00,
2013-02-12 13:41:00,37.1,26.5,29.12,SSE,155,1.2,5.4,66,-99.99,,,-99.99,WSDL version 423,2013-02-12 18:41:00,
2013-02-12 13:46:00,37.7,27.3,29.12,South,190,0.9,4.0,66,-99.99,,,-99.99,WSDL version 423,2013-02-12 18:46:00,
2013-02-12 13:51:00,37.0,26.2,29.12,SSW,203,2.0,4.7,65,-99.99,,,-99.99,WSDL version 423,2013-02-12 18:51:00,
2013-02-12 13:56:00,37.0,26.4,29.12,West,273,2.6,4.7,65,-99.99,,,-99.99,WSDL version 423,2013-02-12 18:56:00,
2013-02-12 14:01:00,37.0,26.7,29.12,SW,236,1.1,4.7,66,-99.99,,,-99.99,WSDL version 423,2013-02-12 19:01:00,
2013-02-12 14:06:00,37.2,27.0,29.12,South,190,0.5,4.3,67,-99.99,,,-99.99,WSDL version 423,2013-02-12 19:06:00,
2013-02-12 14:11:00,36.9,26.7,29.12,SSW,200,1.5,4.9,66,-99.99,,,-99.99,WSDL version 423,2013-02-12 19:11:00,
2013-02-12 14:16:00,37.0,27.0,29.12,SSW,205,0.5,4.9,67,-99.99,,,-99.99,WSDL version 423,2013-02-12 19:16:00,
2013-02-12 14:21:00,37.3,27.6,29.12,South,188,1.7,2.7,67,-99.99,,,-99.99,WSDL version 423,2013-02-12 19:21:00,
2013-02-12 14:26:00,37.3,27.3,29.12,SSW,197,1.7,4.7,67,-99.99,,,-99.99,WSDL version 423,2013-02-12 19:26:00,
2013-02-12 14:31:00,36.8,26.7,29.12,SSW,205,0.0,4.7,67,-99.99,,,-99.99,WSDL version 423,2013-02-12 19:31:00,
2013-02-12 14:36:00,36.8,27.0,29.12,SW,228,1.6,5.4,67,-99.99,,,-99.99,WSDL version 423,2013-02-12 19:36:00,
2013-02-12 14:46:00,36.7,27.4,29.12,WSW,242,0.4,4.0,69,-99.99,,,-99.99,WSDL version 423,2013-02-12 19:46:00,
2013-02-12 14:51:00,-999.0,-99.9,29.15,SSE,153,0.9,2.7,-999,-99.99,,,-99.99,WSDL version 423,2013-02-12 19:51:00,
2013-02-12 14:56:00,35.5,26.4,29.15,SSE,161,1.2,6.0,70,-99.99,,,-99.99,WSDL version 423,2013-02-12 19:56:00,
2013-02-12 15:01:00,35.8,27.0,29.15,SSE,152,0.0,6.0,71,-99.99,,,-99.99,WSDL version 423,2013-02-12 20:01:00,
2013-02-12 15:06:00,35.8,27.0,29.15,South,180,1.1,3.4,70,-99.99,,,-99.99,WSDL version 423,2013-02-12 20:06:00,
2013-02-12 15:11:00,35.9,26.8,29.15,NNE,30,0.5,3.4,69,-99.99,,,-99.99,WSDL version 423,2013-02-12 20:11:00,
2013-02-12 15:16:00,36.1,27.1,29.15,SW,215,1.1,3.8,69,-99.99,,,-99.99,WSDL version 423,2013-02-12 20:16:00,
2013-02-12 15:21:00,35.9,26.5,29.15,SSW,195,1.9,5.8,68,-99.99,,,-99.99,WSDL version 423,2013-02-12 20:21:00,
2013-02-12 15:26:00,35.3,25.6,29.15,South,190,1.9,6.0,68,-99.99,,,-99.99,WSDL version 423,2013-02-12 20:26:00,
2013-02-12 15:31:00,35.0,25.7,29.15,SSW,197,1.8,6.0,69,-99.99,,,-99.99,WSDL version 423,2013-02-12 20:31:00,
2013-02-12 15:36:00,34.7,25.9,29.15,SSE,163,0.4,2.9,70,-99.99,,,-99.99,WSDL version 423,2013-02-12 20:36:00,
2013-02-12 15:41:00,34.5,25.8,29.15,SSW,211,2.0,6.3,70,-99.99,,,-99.99,WSDL version 423,2013-02-12 20:41:00,
2013-02-12 15:46:00,34.4,25.9,29.15,SSW,198,1.0,6.3,71,-99.99,,,-99.99,WSDL version 423,2013-02-12 20:46:00,
2013-02-12 15:56:00,34.1,25.8,29.15,SSW,203,2.5,3.8,72,-99.99,,,-99.99,WSDL version 423,2013-02-12 20:56:00,
2013-02-12 16:01:00,33.8,25.7,29.15,SE,133,0.0,3.8,72,-99.99,,,-99.99,WSDL version 423,2013-02-12 21:01:00,
2013-02-12 16:06:00,33.8,25.8,29.15,SSW,205,0.0,3.8,73,-99.99,,,-99.99,WSDL version 423,2013-02-12 21:06:00,
2013-02-12 16:11:00,33.6,25.9,29.15,SE,135,0.7,3.8,73,-99.99,,,-99.99,WSDL version 423,2013-02-12 21:11:00,
2013-02-12 16:21:00,33.3,25.9,29.15,SSW,193,0.0,4.3,74,-99.99,,,-99.99,WSDL version 423,2013-02-12 21:21:00,
2013-02-12 16:26:00,33.1,25.7,29.15,SSW,211,0.6,4.3,74,-99.99,,,-99.99,WSDL version 423,2013-02-12 21:26:00,
2013-02-12 16:31:00,32.9,25.6,29.15,SW,231,2.6,5.8,74,-99.99,,,-99.99,WSDL version 423,2013-02-12 21:31:00,
2013-02-12 16:36:00,32.7,25.4,29.15,South,183,0.0,5.8,75,-99.99,,,-99.99,WSDL version 423,2013-02-12 21:36:00,
2013-02-12 16:41:00,32.5,25.5,29.15,SSE,164,0.0,3.6,75,-99.99,,,-99.99,WSDL version 423,2013-02-12 21:41:00,
2013-02-12 16:46:00,32.3,25.4,29.15,NNE,19,0.0,0.0,76,-99.99,,,-99.99,WSDL version 423,2013-02-12 21:46:00,
2013-02-12 16:51:00,32.2,24.8,29.15,South,190,0.0,0.0,76,-99.99,,,-99.99,WSDL version 423,2013-02-12 21:51:00,
2013-02-12 16:56:00,32.0,26.0,29.15,SSW,213,0.0,0.0,76,-99.99,,,-99.99,WSDL version 423,2013-02-12 21:56:00,
2013-02-12 17:01:00,31.9,25.9,29.15,SSE,163,0.0,0.0,76,-99.99,,,-99.99,WSDL version 423,2013-02-12 22:01:00,
2013-02-12 17:06:00,-999.0,-99.9,29.15,SSW,200,0.0,0.0,-999,-99.99,,,-99.99,WSDL version 423,2013-02-12 22:06:00,
2013-02-12 17:11:00,-999.0,-99.9,29.15,WNW,303,0.0,0.0,-999,-99.99,,,-99.99,WSDL version 423,2013-02-12 22:11:00,
2013-02-12 17:16:00,-999.0,-99.9,29.15,South,174,0.0,0.0,-999,-99.99,,,-99.99,WSDL version 423,2013-02-12 22:16:00,
2013-02-12 17:21:00,31.2,25.6,29.15,South,188,0.0,0.0,77,-99.99,,,-99.99,WSDL version 423,2013-02-12 22:21:00,
2013-02-12 17:31:00,31.0,25.4,29.15,SSE,158,0.0,0.0,77,-99.99,,,-99.99,WSDL version 423,2013-02-12 22:31:00,
2013-02-12 17:41:00,30.7,25.1,29.18,South,180,0.0,0.0,77,-99.99,,,-99.99,WSDL version 423,2013-02-12 22:41:00,
2013-02-12 17:46:00,30.6,25.0,29.18,South,190,0.0,0.0,77,-99.99,,,-99.99,WSDL version 423,2013-02-12 22:46:00,
2013-02-12 17:51:00,30.5,25.0,29.18,SSE,164,0.0,0.0,78,-99.99,,,-99.99,WSDL version 423,2013-02-12 22:51:00,
2013-02-12 17:56:00,30.4,25.0,29.18,SSW,203,0.0,0.0,78,-99.99,,,-99.99,WSDL version 423,2013-02-12 22:56:00,
2013-02-12 18:01:00,30.2,24.9,29.18,South,183,0.0,0.0,78,-99.99,,,-99.99,WSDL version 423,2013-02-12 23:01:00,
2013-02-12 18:06:00,30.1,24.8,29.21,South,185,0.0,0.0,78,-99.99,,,-99.99,WSDL version 423,2013-02-12 23:06:00,
2013-02-12 18:11:00,30.0,24.7,29.21,South,170,0.0,0.0,78,-99.99,,,-99.99,WSDL version 423,2013-02-12 23:11:00,
2013-02-12 18:16:00,30.0,24.7,29.21,SSW,198,0.0,0.0,78,-99.99,,,-99.99,WSDL version 423,2013-02-12 23:16:00,
2013-02-12 18:21:00,29.9,24.5,29.18,SSW,211,0.0,0.0,78,-99.99,,,-99.99,WSDL version 423,2013-02-12 23:21:00,
2013-02-12 18:26:00,29.8,24.5,29.18,SSE,166,0.0,0.0,78,-99.99,,,-99.99,WSDL version 423,2013-02-12 23:26:00,
2013-02-12 18:31:00,29.7,24.4,29.18,South,190,0.0,0.0,78,-99.99,,,-99.99,WSDL version 423,2013-02-12 23:31:00,
2013-02-12 18:36:00,29.7,24.3,29.18,SSE,166,0.0,0.0,78,-99.99,,,-99.99,WSDL version 423,2013-02-12 23:36:00,
2013-02-12 18:41:00,29.6,24.3,29.18,South,180,0.0,0.0,78,-99.99,,,-99.99,WSDL version 423,2013-02-12 23:41:00,
2013-02-12 18:46:00,29.5,24.2,29.18,South,190,0.0,0.0,78,-99.99,,,-99.99,WSDL version 423,2013-02-12 23:46:00,
2013-02-12 18:51:00,29.5,24.2,29.18,SSW,203,0.0,0.0,78,-99.99,,,-99.99,WSDL version 423,2013-02-12 23:51:00,
2013-02-12 18:56:00,29.5,24.2,29.18,SSW,205,0.0,0.0,78,-99.99,,,-99.99,WSDL version 423,2013-02-12 23:56:00,
2013-02-12 19:01:00,29.3,24.0,29.18,SSE,163,0.0,0.0,78,-99.99,,,-99.99,WSDL version 423,2013-02-13 00:01:00,
2013-02-12 19:06:00,29.3,24.0,29.18,SW,220,0.0,0.0,78,-99.99,,,-99.99,WSDL version 423,2013-02-13 00:06:00,
2013-02-12 19:16:00,29.3,24.0,29.18,SSW,195,0.0,0.0,78,-99.99,,,-99.99,WSDL version 423,2013-02-13 00:16:00,
2013-02-12 19:21:00,29.1,23.8,29.18,WSW,245,0.0,0.0,78,-99.99,,,-99.99,WSDL version 423,2013-02-13 00:21:00,
2013-02-12 19:26:00,29.1,23.8,29.18,SSE,163,0.0,0.0,78,-99.99,,,-99.99,WSDL version 423,2013-02-13 00:26:00,
2013-02-12 19:31:00,29.0,23.7,29.18,South,175,0.0,0.0,78,-99.99,,,-99.99,WSDL version 423,2013-02-13 00:31:00,
2013-02-12 19:36:00,28.9,23.6,29.21,SSW,208,0.0,0.0,78,-99.99,,,-99.99,WSDL version 423,2013-02-13 00:36:00,
2013-02-12 19:46:00,28.8,23.5,29.21,SSW,194,0.0,0.0,78,-99.99,,,-99.99,WSDL version 423,2013-02-13 00:46:00,
2013-02-12 19:51:00,28.7,23.1,29.21,South,185,0.0,0.0,77,-99.99,,,-99.99,WSDL version 423,2013-02-13 00:51:00,
2013-02-12 19:56:00,28.6,23.0,29.21,SW,225,0.0,0.0,77,-99.99,,,-99.99,WSDL version 423,2013-02-13 00:56:00,
2013-02-12 20:01:00,28.6,23.0,29.21,West,273,0.0,0.0,77,-99.99,,,-99.99,WSDL version 423,2013-02-13 01:01:00,
2013-02-12 20:06:00,28.4,22.8,29.21,SE,138,0.0,0.0,77,-99.99,,,-99.99,WSDL version 423,2013-02-13 01:06:00,
2013-02-12 20:11:00,28.4,22.6,29.21,East,96,0.0,0.0,76,-99.99,,,-99.99,WSDL version 423,2013-02-13 01:11:00,
2013-02-12 20:16:00,28.3,22.2,29.21,South,173,0.0,0.0,75,-99.99,,,-99.99,WSDL version 423,2013-02-13 01:16:00,
2013-02-12 20:21:00,28.2,22.1,29.21,SW,219,0.0,0.0,75,-99.99,,,-99.99,WSDL version 423,2013-02-13 01:21:00,
2013-02-12 20:26:00,28.0,21.9,29.21,SSE,165,0.0,0.0,75,-99.99,,,-99.99,WSDL version 423,2013-02-13 01:26:00,
2013-02-12 20:31:00,27.9,21.8,29.21,SSW,203,0.0,0.0,75,-99.99,,,-99.99,WSDL version 423,2013-02-13 01:31:00,
2013-02-12 20:41:00,27.8,21.6,29.21,West,260,0.0,0.0,74,-99.99,,,-99.99,WSDL version 423,2013-02-13 01:41:00,
2013-02-12 20:46:00,27.5,21.2,29.21,WSW,253,0.0,0.0,74,-99.99,,,-99.99,WSDL version 423,2013-02-13 01:46:00,
2013-02-12 20:51:00,27.3,20.9,29.21,WSW,250,0.0,0.0,74,-99.99,,,-99.99,WSDL version 423,2013-02-13 01:51:00,
2013-02-12 20:56:00,27.1,20.8,29.21,SSW,200,0.0,0.0,74,-99.99,,,-99.99,WSDL version 423,2013-02-13 01:56:00,
2013-02-12 21:01:00,27.1,20.7,29.21,SSE,165,0.0,0.0,74,-99.99,,,-99.99,WSDL version 423,2013-02-13 02:01:00,
2013-02-12 21:11:00,26.8,20.6,29.21,South,175,0.0,0.0,75,-99.99,,,-99.99,WSDL version 423,2013-02-13 02:11:00,
2013-02-12 21:16:00,26.8,20.7,29.21,SSW,193,0.0,0.0,75,-99.99,,,-99.99,WSDL version 423,2013-02-13 02:16:00,
2013-02-12 21:21:00,26.6,20.5,29.21,WSW,245,0.0,0.0,75,-99.99,,,-99.99,WSDL version 423,2013-02-13 02:21:00,
2013-02-12 21:26:00,26.6,20.5,29.21,South,188,0.0,0.0,76,-99.99,,,-99.99,WSDL version 423,2013-02-13 02:26:00,
2013-02-12 21:31:00,26.4,20.6,29.21,SW,214,0.0,0.0,76,-99.99,,,-99.99,WSDL version 423,2013-02-13 02:31:00,
2013-02-12 21:36:00,26.4,20.6,29.23,SW,228,0.0,0.0,76,-99.99,,,-99.99,WSDL version 423,2013-02-13 02:36:00,
2013-02-12 21:41:00,26.4,20.6,29.23,WSW,240,0.0,0.0,76,-99.99,,,-99.99,WSDL version 423,2013-02-13 02:41:00,
2013-02-12 21:46:00,26.4,20.6,29.23,WSW,239,0.0,0.0,76,-99.99,,,-99.99,WSDL version 423,2013-02-13 02:46:00,
2013-02-12 21:51:00,26.4,20.6,29.23,WSW,253,0.0,0.0,76,-99.99,,,-99.99,WSDL version 423,2013-02-13 02:51:00,
2013-02-12 21:56:00,26.3,20.5,29.23,SW,233,0.0,0.0,76,-99.99,,,-99.99,WSDL version 423,2013-02-13 02:56:00,
2013-02-12 22:01:00,26.2,20.6,29.23,South,170,0.0,0.0,77,-99.99,,,-99.99,WSDL version 423,2013-02-13 03:01:00,
2013-02-12 22:06:00,26.1,20.6,29.21,South,191,0.0,0.0,77,-99.99,,,-99.99,WSDL version 423,2013-02-13 03:06:00,
2013-02-12 22:11:00,26.1,20.5,29.21,South,190,0.0,0.0,77,-99.99,,,-99.99,WSDL version 423,2013-02-13 03:11:00,
2013-02-12 22:16:00,26.1,20.5,29.21,South,175,0.0,0.0,77,-99.99,,,-99.99,WSDL version 423,2013-02-13 03:16:00,
2013-02-12 22:21:00,26.1,20.5,29.23,South,177,0.0,0.0,77,-99.99,,,-99.99,WSDL version 423,2013-02-13 03:21:00,
2013-02-12 22:26:00,26.1,20.5,29.23,SSE,165,0.0,0.0,77,-99.99,,,-99.99,WSDL version 423,2013-02-13 03:26:00,
2013-02-12 22:31:00,26.1,20.5,29.23,WSW,248,0.0,0.0,77,-99.99,,,-99.99,WSDL version 423,2013-02-13 03:31:00,
2013-02-12 22:36:00,25.9,20.4,29.21,WSW,238,0.0,0.0,77,-99.99,,,-99.99,WSDL version 423,2013-02-13 03:36:00,
2013-02-12 22:41:00,25.9,20.4,29.21,SW,225,0.0,0.0,77,-99.99,,,-99.99,WSDL version 423,2013-02-13 03:41:00,
2013-02-12 22:46:00,25.9,20.4,29.21,WSW,255,0.0,0.0,77,-99.99,,,-99.99,WSDL version 423,2013-02-13 03:46:00,
2013-02-12 22:51:00,25.9,20.4,29.23,West,270,0.0,0.0,77,-99.99,,,-99.99,WSDL version 423,2013-02-13 03:51:00,
2013-02-12 22:56:00,26.1,20.5,29.23,SSW,205,0.0,0.0,77,-99.99,,,-99.99,WSDL version 423,2013-02-13 03:56:00,
2013-02-12 23:01:00,26.0,20.4,29.23,SSW,193,0.0,0.0,77,-99.99,,,-99.99,WSDL version 423,2013-02-13 04:01:00,
2013-02-12 23:06:00,25.9,20.4,29.23,WSW,244,0.0,0.0,77,-99.99,,,-99.99,WSDL version 423,2013-02-13 04:06:00,
2013-02-12 23:11:00,25.7,20.2,29.23,SW,219,0.0,0.0,77,-99.99,,,-99.99,WSDL version 423,2013-02-13 04:11:00,
2013-02-12 23:16:00,25.7,20.2,29.23,West,270,0.0,0.0,77,-99.99,,,-99.99,WSDL version 423,2013-02-13 04:16:00,
2013-02-12 23:21:00,25.6,20.0,29.23,WNW,300,0.0,0.0,77,-99.99,,,-99.99,WSDL version 423,2013-02-13 04:21:00,
2013-02-12 23:26:00,25.6,20.1,29.23,WNW,301,0.0,0.0,77,-99.99,,,-99.99,WSDL version 423,2013-02-13 04:26:00,
2013-02-12 23:31:00,25.5,20.0,29.23,NW,304,0.0,0.0,77,-99.99,,,-99.99,WSDL version 423,2013-02-13 04:31:00,
2013-02-12 23:36:00,25.5,20.0,29.21,West,275,0.0,0.0,77,-99.99,,,-99.99,WSDL version 423,2013-02-13 04:36:00,
2013-02-12 23:41:00,25.5,20.3,29.21,SW,231,0.0,0.0,78,-99.99,,,-99.99,WSDL version 423,2013-02-13 04:41:00,
2013-02-12 23:46:00,25.5,20.3,29.21,SSW,213,0.0,0.0,78,-99.99,,,-99.99,WSDL version 423,2013-02-13 04:46:00,
2013-02-12 23:51:00,25.4,20.2,29.21,SSE,158,0.0,0.0,78,-99.99,,,-99.99,WSDL version 423,2013-02-13 04:51:00,
2013-02-12 23:56:00,25.3,20.1,29.21,South,175,0.0,0.0,78,-99.99,,,-99.99,WSDL version 423,2013-02-13 04:56:00,